createdAt,value
2018-04-28T00:01:46.892Z,2.87
2018-04-28T00:04:14.407Z,2.70
2018-04-28T00:06:41.928Z,2.50
2018-04-28T00:09:09.466Z,2.90
2018-04-28T00:11:36.985Z,3.27
2018-04-28T00:14:04.530Z,3.43
2018-04-28T00:19:25.466Z,3.10
2018-04-28T00:22:25.449Z,3.00
2018-04-28T00:27:49.937Z,2.63
2018-04-28T00:30:41.875Z,2.63
2018-04-28T00:36:08.608Z,3.27
2018-04-28T00:41:37.937Z,3.30
2018-04-28T00:44:12.259Z,2.93
2018-04-28T00:46:54.655Z,3.40
2018-04-28T00:49:23.006Z,3.27
2018-04-28T00:51:52.069Z,3.27
2018-04-28T00:54:41.129Z,3.60
2018-04-28T01:00:18.657Z,3.67
2018-04-28T01:02:46.944Z,3.17
2018-04-28T01:05:19.191Z,3.50
2018-04-28T01:07:50.269Z,4.50
2018-04-28T01:10:17.809Z,4.07
2018-04-28T01:12:49.833Z,4.60
2018-04-28T01:15:21.104Z,4.30
2018-04-28T01:17:53.836Z,4.80
2018-04-28T01:23:43.950Z,2.63
2018-04-28T01:26:21.257Z,3.70
2018-04-28T01:28:48.772Z,3.20
2018-04-28T01:31:25.929Z,3.20
2018-04-28T01:36:51.248Z,3.47
2018-04-28T01:42:17.192Z,3.97
2018-04-28T01:44:52.336Z,3.60
2018-04-28T01:47:23.628Z,3.70
2018-04-28T01:49:51.922Z,4.13
2018-04-28T01:52:21.838Z,4.13
2018-04-28T01:57:43.598Z,3.70
2018-04-28T02:00:12.661Z,3.13
2018-04-28T02:02:51.985Z,4.03
2018-04-28T02:05:25.911Z,4.20
2018-04-28T02:07:54.405Z,3.77
2018-04-28T02:13:28.219Z,3.17
2018-04-28T02:15:58.492Z,3.60
2018-04-28T02:21:25.025Z,3.10
2018-04-28T02:24:04.011Z,2.93
2018-04-28T02:29:28.641Z,2.57
2018-04-28T02:31:59.081Z,3.07
2018-04-28T02:37:35.097Z,3.53
2018-04-28T02:43:04.989Z,3.03
2018-04-28T02:45:48.217Z,3.00
2018-04-28T02:48:23.504Z,2.87
2018-04-28T02:51:04.833Z,3.00
2018-04-28T02:53:35.096Z,3.37
2018-04-28T02:56:08.368Z,3.30
2018-04-28T02:58:46.605Z,4.07
2018-04-28T03:01:20.118Z,3.17
2018-04-28T03:03:51.052Z,3.30
2018-04-28T03:06:23.120Z,3.47
2018-04-28T03:08:50.669Z,2.90
2018-04-28T03:11:18.195Z,3.00
2018-04-28T03:13:51.440Z,3.60
2018-04-28T03:16:27.664Z,2.67
2018-04-28T03:19:04.464Z,3.43
2018-04-28T03:21:32.836Z,3.27
2018-04-28T03:24:04.716Z,3.80
2018-04-28T03:26:32.296Z,2.80
2018-04-28T03:29:18.566Z,2.97
2018-04-28T03:31:50.703Z,3.90
2018-04-28T03:34:23.799Z,3.50
2018-04-28T03:36:51.320Z,3.27
2018-04-28T03:39:36.359Z,3.23
2018-04-28T03:44:57.981Z,3.03
2018-04-28T03:47:56.048Z,3.37
2018-04-28T03:50:29.581Z,2.13
2018-04-28T03:53:02.628Z,2.50
2018-04-28T03:55:30.164Z,2.20
2018-04-28T03:58:09.676Z,2.47
2018-04-28T04:00:49.913Z,2.17
2018-04-28T04:03:32.299Z,2.13
2018-04-28T04:06:15.533Z,2.80
2018-04-28T04:08:44.856Z,2.70
2018-04-28T04:11:30.292Z,2.90
2018-04-28T04:16:59.743Z,4.00
2018-04-28T04:22:34.684Z,2.63
2018-04-28T04:25:02.192Z,2.63
2018-04-28T04:27:46.203Z,2.45
2018-04-28T04:33:37.854Z,2.77
2018-04-28T04:36:06.836Z,3.20
2018-04-28T04:38:37.880Z,3.50
2018-04-28T04:44:05.795Z,3.20
2018-04-28T04:49:41.038Z,3.57
2018-04-28T04:52:15.269Z,3.20
2018-04-28T04:54:52.526Z,2.87
2018-04-28T05:00:54.951Z,2.70
2018-04-28T05:03:30.082Z,3.07
2018-04-28T05:06:03.683Z,2.37
2018-04-28T05:08:37.760Z,2.60
2018-04-28T05:11:26.151Z,2.57
2018-04-28T05:14:17.197Z,3.00
2018-04-28T05:16:45.594Z,2.43
2018-04-28T05:22:23.888Z,3.17
2018-04-28T05:24:53.051Z,3.00
2018-04-28T05:27:23.718Z,2.50
2018-04-28T05:30:03.097Z,3.03
2018-04-28T05:32:36.300Z,2.60
2018-04-28T05:38:16.239Z,2.70
2018-04-28T05:40:55.603Z,2.80
2018-04-28T05:43:29.797Z,2.97
2018-04-28T05:46:09.167Z,2.83
2018-04-28T05:48:58.549Z,2.30
2018-04-28T05:54:33.506Z,2.83
2018-04-28T05:57:20.724Z,2.70
2018-04-28T06:00:00.153Z,2.00
2018-04-28T06:02:46.112Z,2.20
2018-04-28T06:05:25.417Z,2.13
2018-04-28T06:08:11.620Z,2.27
2018-04-28T06:10:49.053Z,2.57
2018-04-28T06:16:43.876Z,3.17
2018-04-28T06:22:05.571Z,2.30
2018-04-28T06:24:33.111Z,3.13
2018-04-28T06:27:00.624Z,2.90
2018-04-28T06:29:28.924Z,2.47
2018-04-28T06:31:56.444Z,2.17
2018-04-28T06:34:23.977Z,2.40
2018-04-28T06:37:01.146Z,2.57
2018-04-28T06:39:28.692Z,2.43
2018-04-28T06:41:56.229Z,2.00
2018-04-28T06:44:24.513Z,2.47
2018-04-28T06:46:52.813Z,3.00
2018-04-28T06:49:20.336Z,2.70
2018-04-28T06:51:47.864Z,2.00
2018-04-28T06:54:15.377Z,2.23
2018-04-28T06:56:43.676Z,2.10
2018-04-28T06:59:11.220Z,2.47
2018-04-28T07:01:39.529Z,1.83
2018-04-28T07:04:07.046Z,2.33
2018-04-28T07:06:35.348Z,1.40
2018-04-28T07:09:02.874Z,2.30
2018-04-28T07:11:30.405Z,2.17
2018-04-28T07:13:57.911Z,2.00
2018-04-28T07:16:26.220Z,3.60
2018-04-28T07:18:53.743Z,2.47
2018-04-28T07:21:21.276Z,2.20
2018-04-28T07:23:48.798Z,2.63
2018-04-28T07:26:16.336Z,1.90
2018-04-28T07:28:44.615Z,2.67
2018-04-28T07:31:12.152Z,2.27
2018-04-28T07:33:39.678Z,2.30
2018-04-28T07:36:07.212Z,1.50
2018-04-28T07:38:35.495Z,1.53
2018-04-28T07:41:03.767Z,2.03
2018-04-28T07:43:32.074Z,2.27
2018-04-28T07:45:59.584Z,1.80
2018-04-28T07:48:27.115Z,2.37
2018-04-28T07:50:54.646Z,1.90
2018-04-28T07:53:22.254Z,2.17
2018-04-28T07:55:50.480Z,1.63
2018-04-28T07:58:18.775Z,2.53
2018-04-28T08:00:46.291Z,2.57
2018-04-28T08:03:13.832Z,2.60
2018-04-28T08:05:41.348Z,2.17
2018-04-28T08:08:09.652Z,2.30
2018-04-28T08:10:37.164Z,3.17
2018-04-28T08:13:05.471Z,2.60
2018-04-28T08:15:33.751Z,2.80
2018-04-28T08:18:02.043Z,2.00
2018-04-28T08:20:29.566Z,2.53
2018-04-28T08:22:57.101Z,2.20
2018-04-28T08:25:24.616Z,2.10
2018-04-28T08:27:52.144Z,2.80
2018-04-28T08:30:19.669Z,2.07
2018-04-28T08:32:47.234Z,2.17
2018-04-28T08:35:14.748Z,1.90
2018-04-28T08:37:43.035Z,2.47
2018-04-28T08:40:11.332Z,2.20
2018-04-28T08:42:38.908Z,2.00
2018-04-28T08:45:06.441Z,2.30
2018-04-28T08:47:34.747Z,2.50
2018-04-28T08:50:02.273Z,2.10
2018-04-28T08:52:29.788Z,1.97
2018-04-28T08:54:57.324Z,2.00
2018-04-28T08:57:24.845Z,2.00
2018-04-28T09:00:04.308Z,2.50
2018-04-28T09:02:32.592Z,2.30
2018-04-28T09:05:00.887Z,1.93
2018-04-28T09:07:45.247Z,2.20
2018-04-28T09:10:12.785Z,2.03
2018-04-28T09:12:41.064Z,2.13
2018-04-28T09:15:09.364Z,2.17
2018-04-28T09:17:36.876Z,2.00
2018-04-28T09:20:04.417Z,2.17
2018-04-28T09:22:31.936Z,2.43
2018-04-28T09:25:00.236Z,2.07
2018-04-28T09:27:27.756Z,2.20
2018-04-28T09:29:55.296Z,2.40
2018-04-28T09:32:22.813Z,2.13
2018-04-28T09:34:50.330Z,2.17
2018-04-28T09:37:17.865Z,3.00
2018-04-28T09:39:45.390Z,2.40
2018-04-28T09:42:13.684Z,2.60
2018-04-28T09:44:41.196Z,2.03
2018-04-28T09:47:08.727Z,1.80
2018-04-28T09:49:36.243Z,2.23
2018-04-28T09:52:04.545Z,3.00
2018-04-28T09:54:32.065Z,2.03
2018-04-28T09:56:59.595Z,2.47
2018-04-28T09:59:27.125Z,2.67
2018-04-28T10:01:58.641Z,2.40
2018-04-28T10:04:26.151Z,3.07
2018-04-28T10:06:53.694Z,2.40
2018-04-28T10:09:21.207Z,2.20
2018-04-28T10:11:48.755Z,2.70
2018-04-28T10:14:16.267Z,2.33
2018-04-28T10:16:44.563Z,2.27
2018-04-28T10:19:12.083Z,2.50
2018-04-28T10:21:39.621Z,2.50
2018-04-28T10:24:07.136Z,2.60
2018-04-28T10:26:35.436Z,2.20
2018-04-28T10:29:02.956Z,2.20
2018-04-28T10:31:30.489Z,2.30
2018-04-28T10:33:58.004Z,2.37
2018-04-28T10:36:25.536Z,2.40
2018-04-28T10:38:53.071Z,1.70
2018-04-28T10:41:20.580Z,1.97
2018-04-28T10:43:48.880Z,1.97
2018-04-28T10:46:16.392Z,2.77
2018-04-28T10:48:43.928Z,2.20
2018-04-28T10:51:11.439Z,1.73
2018-04-28T10:53:39.780Z,2.23
2018-04-28T10:56:07.280Z,2.23
2018-04-28T10:58:35.582Z,2.30
2018-04-28T11:01:03.108Z,2.00
2018-04-28T11:03:30.645Z,2.00
2018-04-28T11:05:58.159Z,2.17
2018-04-28T11:08:26.451Z,2.07
2018-04-28T11:10:53.976Z,2.10
2018-04-28T11:13:21.566Z,2.87
2018-04-28T11:15:49.047Z,1.60
2018-04-28T11:18:16.586Z,2.13
2018-04-28T11:20:44.900Z,1.93
2018-04-28T11:23:12.432Z,1.77
2018-04-28T11:25:40.782Z,2.43
2018-04-28T11:28:08.280Z,2.00
2018-04-28T11:30:36.563Z,1.57
2018-04-28T11:33:04.844Z,1.43
2018-04-28T11:35:33.148Z,2.07
2018-04-28T11:38:00.663Z,1.80
2018-04-28T11:40:28.200Z,2.07
2018-04-28T11:42:55.722Z,2.13
2018-04-28T11:45:24.034Z,1.83
2018-04-28T11:47:51.554Z,2.73
2018-04-28T11:50:19.859Z,1.70
2018-04-28T11:52:47.374Z,1.50
2018-04-28T11:55:14.909Z,2.17
2018-04-28T11:57:42.420Z,2.00
2018-04-28T12:00:10.715Z,1.90
2018-04-28T12:02:39.000Z,2.50
2018-04-28T12:05:06.592Z,1.53
2018-04-28T12:07:34.842Z,1.53
2018-04-28T12:10:02.452Z,2.10
2018-04-28T12:12:29.910Z,1.63
2018-04-28T12:14:57.440Z,1.97
2018-04-28T12:17:24.981Z,2.00
2018-04-28T12:19:53.287Z,2.43
2018-04-28T12:22:20.882Z,4.03
2018-04-28T12:24:49.105Z,2.03
2018-04-28T12:27:17.404Z,1.87
2018-04-28T12:29:44.963Z,1.77
2018-04-28T12:32:13.256Z,1.50
2018-04-28T12:34:40.773Z,2.10
2018-04-28T12:37:08.304Z,2.20
2018-04-28T12:39:35.824Z,2.13
2018-04-28T12:42:03.360Z,1.90
2018-04-28T12:44:31.644Z,1.80
2018-04-28T12:46:59.949Z,2.50
2018-04-28T12:49:27.463Z,2.47
2018-04-28T12:51:55.000Z,1.80
2018-04-28T12:54:22.515Z,2.17
2018-04-28T12:56:50.816Z,2.60
2018-04-28T12:59:18.333Z,2.53
2018-04-28T13:01:45.869Z,2.00
2018-04-28T13:04:13.390Z,3.27
2018-04-28T13:06:41.689Z,1.90
2018-04-28T13:09:09.214Z,2.80
2018-04-28T13:11:37.495Z,2.60
2018-04-28T13:14:05.797Z,2.53
2018-04-28T13:16:33.317Z,1.90
2018-04-28T13:19:01.428Z,2.93
2018-04-28T13:21:29.711Z,2.40
2018-04-28T13:23:57.244Z,2.00
2018-04-28T13:26:24.757Z,2.67
2018-04-28T13:28:52.288Z,2.10
2018-04-28T13:31:20.568Z,1.70
2018-04-28T13:33:48.873Z,2.17
2018-04-28T13:36:16.384Z,2.20
2018-04-28T13:38:43.919Z,2.57
2018-04-28T13:41:11.514Z,2.63
2018-04-28T13:43:38.991Z,2.63
2018-04-28T13:46:07.271Z,2.53
2018-04-28T13:48:35.567Z,2.10
2018-04-28T13:51:03.081Z,2.80
2018-04-28T13:53:30.595Z,1.93
2018-04-28T13:55:58.171Z,1.90
2018-04-28T13:58:25.669Z,2.60
2018-04-28T14:00:53.204Z,2.20
2018-04-28T14:03:20.716Z,2.40
2018-04-28T14:05:49.032Z,1.70
2018-04-28T14:08:16.553Z,2.70
2018-04-28T14:10:44.088Z,2.50
2018-04-28T14:13:11.607Z,1.77
2018-04-28T14:15:39.140Z,2.23
2018-04-28T14:18:06.656Z,1.80
2018-04-28T14:20:34.195Z,2.53
2018-04-28T14:23:01.711Z,2.27
2018-04-28T14:25:29.334Z,2.00
2018-04-28T14:27:56.853Z,1.90
2018-04-28T14:30:25.156Z,2.20
2018-04-28T14:32:52.668Z,1.57
2018-04-28T14:35:20.201Z,2.07
2018-04-28T14:37:47.717Z,2.40
2018-04-28T14:40:16.020Z,1.57
2018-04-28T14:42:43.539Z,1.57
2018-04-28T14:45:11.072Z,2.03
2018-04-28T14:47:38.592Z,2.07
2018-04-28T14:50:06.903Z,2.43
2018-04-28T14:52:34.419Z,2.27
2018-04-28T14:55:02.704Z,2.20
2018-04-28T14:57:30.995Z,1.70
2018-04-28T14:59:59.276Z,2.07
2018-04-28T15:02:27.579Z,1.83
2018-04-28T15:04:55.095Z,2.37
2018-04-28T15:07:22.628Z,1.97
2018-04-28T15:09:50.243Z,2.07
2018-04-28T15:12:17.794Z,2.63
2018-04-28T15:14:45.260Z,2.17
2018-04-28T15:17:13.560Z,1.93
2018-04-28T15:19:41.076Z,1.97
2018-04-28T15:22:08.609Z,1.90
2018-04-28T15:24:36.125Z,2.47
2018-04-28T15:27:04.428Z,1.77
2018-04-28T15:29:31.945Z,2.30
2018-04-28T15:31:59.547Z,1.93
2018-04-28T15:34:27.783Z,2.20
2018-04-28T15:36:55.312Z,2.10
2018-04-28T15:39:22.828Z,1.80
2018-04-28T15:41:51.136Z,1.70
2018-04-28T15:44:18.654Z,1.70
2018-04-28T15:46:46.168Z,1.77
2018-04-28T15:49:13.704Z,1.80
2018-04-28T15:51:41.986Z,1.70
2018-04-28T15:54:09.527Z,2.40
2018-04-28T15:56:37.043Z,2.00
2018-04-28T15:59:04.579Z,1.70
2018-04-28T16:01:32.861Z,2.00
2018-04-28T16:04:00.392Z,2.17
2018-04-28T16:06:27.917Z,1.90
2018-04-28T16:08:55.466Z,2.07
2018-04-28T16:11:22.980Z,2.77
2018-04-28T16:13:50.520Z,1.80
2018-04-28T16:16:18.032Z,2.43
2018-04-28T16:18:45.587Z,1.73
2018-04-28T16:21:13.873Z,2.07
2018-04-28T16:23:41.456Z,2.63
2018-04-28T16:26:08.988Z,2.33
2018-04-28T16:28:37.267Z,2.23
2018-04-28T16:31:05.567Z,2.10
2018-04-28T16:33:33.080Z,2.20
2018-04-28T16:36:00.623Z,1.50
2018-04-28T16:38:28.140Z,3.30
2018-04-28T16:40:56.544Z,2.43
2018-04-28T16:43:24.056Z,2.00
2018-04-28T16:45:51.589Z,2.27
2018-04-28T16:48:19.104Z,1.63
2018-04-28T16:50:46.769Z,1.70
2018-04-28T16:53:14.261Z,1.70
2018-04-28T16:55:41.797Z,1.90
2018-04-28T16:58:09.308Z,1.77
2018-04-28T17:00:36.840Z,1.60
2018-04-28T17:03:04.356Z,1.80
2018-04-28T17:05:32.765Z,1.67
2018-04-28T17:08:01.043Z,1.83
2018-04-28T17:10:29.356Z,1.80
2018-04-28T17:12:56.879Z,1.47
2018-04-28T17:15:25.181Z,2.13
2018-04-28T17:17:53.776Z,2.23
2018-04-28T17:20:21.301Z,1.73
2018-04-28T17:22:49.606Z,1.67
2018-04-28T17:25:17.123Z,1.47
2018-04-28T17:27:44.660Z,2.07
2018-04-28T17:30:12.181Z,1.83
2018-04-28T17:32:40.476Z,1.70
2018-04-28T17:35:08.002Z,1.60
2018-04-28T17:37:35.534Z,1.90
2018-04-28T17:40:03.047Z,1.60
2018-04-28T17:42:31.349Z,1.80
2018-04-28T17:44:58.860Z,2.20
2018-04-28T17:47:26.396Z,2.13
2018-04-28T17:49:53.909Z,2.40
2018-04-28T17:52:22.213Z,2.20
2018-04-28T17:54:49.729Z,2.10
2018-04-28T17:57:17.263Z,2.10
2018-04-28T17:59:44.780Z,2.27
2018-04-28T18:02:13.101Z,2.60
2018-04-28T18:04:40.620Z,1.97
2018-04-28T18:07:08.903Z,1.90
2018-04-28T18:09:37.199Z,1.70
2018-04-28T18:12:04.716Z,1.90
2018-04-28T18:14:32.288Z,1.83
2018-04-28T18:16:59.777Z,1.50
2018-04-28T18:19:27.309Z,2.30
2018-04-28T18:21:54.915Z,2.30
2018-04-28T18:24:22.480Z,2.73
2018-04-28T18:26:49.998Z,1.90
2018-04-28T18:29:18.299Z,2.00
2018-04-28T18:31:46.583Z,1.90
2018-04-28T18:34:14.164Z,1.60
2018-04-28T18:36:41.728Z,1.50
2018-04-28T18:39:09.263Z,2.13
2018-04-28T18:41:37.543Z,2.20
2018-04-28T18:44:05.846Z,2.50
2018-04-28T18:46:33.450Z,2.00
2018-04-28T18:49:01.680Z,2.27
2018-04-28T18:51:29.192Z,1.70
2018-04-28T18:53:56.724Z,2.87
2018-04-28T18:56:24.247Z,2.10
2018-04-28T18:58:52.544Z,1.30
2018-04-28T19:01:20.057Z,1.90
2018-04-28T19:03:47.604Z,1.70
2018-04-28T19:06:15.127Z,1.97
2018-04-28T19:08:42.636Z,1.47
2018-04-28T19:11:10.172Z,1.90
2018-04-28T19:13:37.687Z,1.80
2018-04-28T19:16:05.225Z,2.60
2018-04-28T19:18:32.741Z,2.10
2018-04-28T19:21:01.125Z,3.07
2018-04-28T19:23:28.583Z,2.40
2018-04-28T19:25:56.988Z,2.73
2018-04-28T19:28:24.504Z,2.10
2018-04-28T19:30:52.044Z,3.00
2018-04-28T19:33:19.583Z,2.03
2018-04-28T19:35:47.121Z,2.20
2018-04-28T19:38:15.404Z,2.00
2018-04-28T19:40:43.713Z,1.80
2018-04-28T19:43:11.251Z,1.93
2018-04-28T19:45:38.785Z,1.90
2018-04-28T19:48:06.393Z,2.00
2018-04-28T19:50:33.927Z,1.90
2018-04-28T19:53:02.216Z,1.83
2018-04-28T19:55:29.750Z,2.37
2018-04-28T19:57:58.036Z,1.67
2018-04-28T20:00:26.421Z,2.27
2018-04-28T20:02:53.877Z,1.57
2018-04-28T20:05:22.181Z,2.20
2018-04-28T20:07:49.700Z,2.73
2018-04-28T20:10:17.229Z,2.10
2018-04-28T20:12:44.780Z,2.23
2018-04-28T20:15:12.360Z,2.10
2018-04-28T20:17:39.898Z,2.13
2018-04-28T20:20:07.412Z,3.17
2018-04-28T20:22:46.867Z,2.00
2018-04-28T20:25:22.717Z,1.73
2018-04-28T20:27:50.255Z,1.90
2018-04-28T20:30:17.864Z,2.10
2018-04-28T20:32:45.320Z,1.80
2018-04-28T20:35:13.625Z,1.80
2018-04-28T20:37:41.162Z,1.70
2018-04-28T20:40:08.681Z,1.60
2018-04-28T20:42:36.216Z,1.80
2018-04-28T20:45:03.736Z,1.77
2018-04-28T20:47:32.037Z,1.30
2018-04-28T20:50:00.341Z,1.70
2018-04-28T20:52:27.900Z,2.00
2018-04-28T20:54:55.420Z,2.40
2018-04-28T20:57:23.723Z,2.23
2018-04-28T20:59:52.031Z,2.53
2018-04-28T21:02:19.589Z,2.67
2018-04-28T21:04:47.120Z,2.70
2018-04-28T21:07:15.399Z,2.40
2018-04-28T21:09:43.707Z,2.10
2018-04-28T21:12:11.216Z,2.47
2018-04-28T21:14:38.751Z,2.40
2018-04-28T21:17:06.272Z,2.10
2018-04-28T21:19:34.872Z,2.10
2018-04-28T21:22:02.396Z,2.03
2018-04-28T21:24:29.935Z,2.10
2018-04-28T21:26:57.469Z,2.33
2018-04-28T21:29:25.131Z,2.60
2018-04-28T21:31:52.656Z,2.37
2018-04-28T21:34:20.973Z,2.40
2018-04-28T21:36:48.488Z,2.30
2018-04-28T21:39:16.022Z,1.93
2018-04-28T21:41:43.532Z,2.57
2018-04-28T21:44:11.828Z,2.30
2018-04-28T21:46:39.349Z,2.10
2018-04-28T21:49:06.963Z,2.17
2018-04-28T21:51:34.529Z,1.87
2018-04-28T21:54:02.083Z,1.90
2018-04-28T21:56:29.598Z,1.90
2018-04-28T21:58:57.148Z,2.50
2018-04-28T22:01:24.671Z,2.43
2018-04-28T22:03:52.187Z,2.97
2018-04-28T22:06:19.723Z,3.03
2018-04-28T22:08:47.235Z,3.30
2018-04-28T22:11:15.535Z,4.03
2018-04-28T22:13:43.109Z,2.43
2018-04-28T22:16:10.678Z,2.83
2018-04-28T22:18:38.192Z,2.97
2018-04-28T22:21:06.492Z,2.57
2018-04-28T22:23:34.853Z,2.80
2018-04-28T22:26:02.333Z,2.90
2018-04-28T22:28:30.616Z,2.30
2018-04-28T22:30:58.916Z,3.07
2018-04-28T22:33:26.427Z,2.83
2018-04-28T22:35:53.958Z,2.73
2018-04-28T22:38:21.509Z,2.87
2018-04-28T22:40:49.067Z,2.93
2018-04-28T22:43:16.588Z,3.20
2018-04-28T22:45:44.126Z,3.10
2018-04-28T22:48:11.659Z,4.50
2018-04-28T22:50:39.228Z,2.37
2018-04-28T22:53:06.741Z,2.67
2018-04-28T22:55:35.041Z,2.57
2018-04-28T22:58:03.324Z,2.70
2018-04-28T23:00:41.455Z,2.90
2018-04-28T23:03:08.963Z,2.70
2018-04-28T23:05:36.479Z,2.90
2018-04-28T23:08:04.016Z,3.03
2018-04-28T23:10:32.325Z,2.37
2018-04-28T23:12:59.856Z,2.80
2018-04-28T23:15:28.168Z,2.63
2018-04-28T23:17:55.729Z,2.50
2018-04-28T23:20:23.253Z,2.90
2018-04-28T23:22:51.564Z,2.47
2018-04-28T23:25:19.084Z,3.00
2018-04-28T23:27:46.693Z,3.70
2018-04-28T23:30:14.205Z,3.07
2018-04-28T23:32:42.536Z,2.67
2018-04-28T23:35:10.058Z,2.60
2018-04-28T23:37:37.587Z,3.10
2018-04-28T23:40:05.105Z,3.40
2018-04-28T23:42:32.647Z,3.40
2018-04-28T23:45:00.931Z,3.47
2018-04-28T23:47:28.489Z,4.13
2018-04-28T23:49:56.771Z,3.40
2018-04-28T23:52:25.072Z,3.53
2018-04-28T23:54:52.592Z,4.63
2018-04-28T23:57:20.128Z,4.30
2018-04-28T23:59:47.667Z,4.03
